createdAt,value
2022-08-31T00:01:52.586Z,96226.00
2022-08-31T00:04:19.718Z,96219.44
2022-08-31T00:06:46.418Z,96214.84
2022-08-31T00:09:20.640Z,96222.13
2022-08-31T00:11:47.143Z,96218.06
2022-08-31T00:14:13.607Z,96223.06
2022-08-31T00:16:43.120Z,96224.06
2022-08-31T00:19:10.031Z,96232.00
2022-08-31T00:21:38.893Z,96227.63
2022-08-31T00:24:05.472Z,96224.84
2022-08-31T00:26:32.430Z,96222.75
2022-08-31T00:28:58.954Z,96226.72
2022-08-31T00:31:25.708Z,96222.66
2022-08-31T00:33:52.697Z,96227.44
2022-08-31T00:36:24.910Z,96221.94
2022-08-31T00:38:52.443Z,96215.59
2022-08-31T00:41:24.997Z,96217.72
2022-08-31T00:43:56.819Z,96210.81
2022-08-31T00:46:26.984Z,96213.97
2022-08-31T00:49:17.359Z,96212.94
2022-08-31T00:52:10.958Z,96216.75
2022-08-31T00:54:46.699Z,96216.56
2022-08-31T00:57:14.116Z,96211.16
2022-08-31T00:59:42.678Z,96202.69
2022-08-31T01:02:09.772Z,96201.09
2022-08-31T01:04:37.204Z,96198.16
2022-08-31T01:07:06.551Z,96201.34
2022-08-31T01:09:36.742Z,96195.91
2022-08-31T01:12:07.721Z,96192.41
2022-08-31T01:14:37.204Z,96200.19
2022-08-31T01:17:05.964Z,96201.91
2022-08-31T01:19:45.822Z,96204.25
2022-08-31T01:22:22.427Z,96193.72
2022-08-31T01:24:52.201Z,96205.63
2022-08-31T01:27:23.551Z,96212.22
2022-08-31T01:29:49.937Z,96209.78
2022-08-31T01:32:17.106Z,96209.63
2022-08-31T01:34:43.572Z,96212.06
2022-08-31T01:37:10.535Z,96208.63
2022-08-31T01:39:37.480Z,96209.28
2022-08-31T01:42:04.066Z,96209.91
2022-08-31T01:44:30.653Z,96204.56
2022-08-31T01:46:59.317Z,96207.28
2022-08-31T01:49:26.003Z,96201.25
2022-08-31T01:51:53.774Z,96200.03
2022-08-31T01:54:22.764Z,96201.06
2022-08-31T01:56:49.470Z,96198.16
2022-08-31T01:59:18.031Z,96195.41
2022-08-31T02:01:48.280Z,96191.72
2022-08-31T02:04:15.840Z,96184.41
2022-08-31T02:06:45.532Z,96190.19
2022-08-31T02:09:13.299Z,96194.69
2022-08-31T02:11:40.147Z,96192.75
2022-08-31T02:14:08.152Z,96191.75
2022-08-31T02:16:35.415Z,96188.88
2022-08-31T02:19:02.623Z,96192.75
2022-08-31T02:21:29.343Z,96195.50
2022-08-31T02:23:56.312Z,96198.63
2022-08-31T02:26:22.941Z,96196.50
2022-08-31T02:28:49.760Z,96204.41
2022-08-31T02:31:16.418Z,96203.59
2022-08-31T02:33:43.551Z,96192.66
2022-08-31T02:36:10.531Z,96199.06
2022-08-31T02:38:38.912Z,96189.81
2022-08-31T02:41:06.200Z,96200.84
2022-08-31T02:43:33.894Z,96194.34
2022-08-31T02:46:00.572Z,96194.66
2022-08-31T02:48:27.312Z,96204.91
2022-08-31T02:50:54.385Z,96206.03
2022-08-31T02:53:23.055Z,96198.25
2022-08-31T02:55:50.159Z,96209.91
2022-08-31T02:58:21.983Z,96202.44
2022-08-31T03:00:50.776Z,96203.25
2022-08-31T03:03:18.827Z,96207.16
2022-08-31T03:05:45.825Z,96201.00
2022-08-31T03:08:12.177Z,96201.31
2022-08-31T03:10:38.611Z,96205.38
2022-08-31T03:13:05.396Z,96213.09
2022-08-31T03:15:32.347Z,96207.16
2022-08-31T03:17:58.949Z,96212.84
2022-08-31T03:20:27.913Z,96214.16
2022-08-31T03:22:55.575Z,96209.84
2022-08-31T03:25:26.095Z,96218.03
2022-08-31T03:27:52.879Z,96219.44
2022-08-31T03:30:21.839Z,96227.44
2022-08-31T03:32:51.036Z,96233.94
2022-08-31T03:35:19.191Z,96243.13
2022-08-31T03:37:45.696Z,96230.19
2022-08-31T03:40:13.356Z,96228.75
2022-08-31T03:42:40.928Z,96229.97
2022-08-31T03:45:08.493Z,96224.19
2022-08-31T03:47:36.031Z,96222.91
2022-08-31T03:50:11.300Z,96222.50
2022-08-31T03:52:38.538Z,96226.63
2022-08-31T03:55:06.728Z,96232.00
2022-08-31T03:57:35.190Z,96226.16
2022-08-31T04:00:01.718Z,96238.94
2022-08-31T04:02:28.247Z,96232.78
2022-08-31T04:04:57.660Z,96240.44
2022-08-31T04:07:24.071Z,96237.09
2022-08-31T04:09:50.978Z,96231.06
2022-08-31T04:12:19.459Z,96240.31
2022-08-31T04:14:46.191Z,96238.31
2022-08-31T04:17:12.779Z,96240.06
2022-08-31T04:19:41.668Z,96249.53
2022-08-31T04:22:08.756Z,96249.53
2022-08-31T04:24:35.248Z,96247.47
2022-08-31T04:27:02.240Z,96238.00
2022-08-31T04:29:28.627Z,96248.75
2022-08-31T04:31:55.056Z,96238.91
2022-08-31T04:34:22.072Z,96245.47
2022-08-31T04:36:48.435Z,96237.66
2022-08-31T04:39:15.591Z,96240.59
2022-08-31T04:41:44.144Z,96242.28
2022-08-31T04:44:11.257Z,96236.63
2022-08-31T04:46:39.696Z,96237.38
2022-08-31T04:49:09.093Z,96241.59
2022-08-31T04:51:38.126Z,96245.91
2022-08-31T04:54:08.126Z,96254.78
2022-08-31T04:56:39.429Z,96242.75
2022-08-31T04:59:08.260Z,96251.78
2022-08-31T05:01:43.304Z,96255.78
2022-08-31T05:04:12.075Z,96253.84
2022-08-31T05:06:40.849Z,96256.03
2022-08-31T05:09:11.270Z,96259.91
2022-08-31T05:11:38.294Z,96253.19
2022-08-31T05:14:07.188Z,96251.72
2022-08-31T05:16:37.624Z,96262.75
2022-08-31T05:19:04.079Z,96251.22
2022-08-31T05:21:34.595Z,96264.06
2022-08-31T05:24:04.104Z,96262.56
2022-08-31T05:26:33.708Z,96265.44
2022-08-31T05:29:01.873Z,96260.78
2022-08-31T05:31:29.918Z,96263.69
2022-08-31T05:33:58.710Z,96260.44
2022-08-31T05:36:25.908Z,96263.34
2022-08-31T05:38:56.526Z,96261.31
2022-08-31T05:41:26.020Z,96263.91
2022-08-31T05:43:52.647Z,96267.75
2022-08-31T05:46:19.144Z,96264.75
2022-08-31T05:48:50.126Z,96273.09
2022-08-31T05:51:18.211Z,96272.47
2022-08-31T05:53:46.624Z,96280.53
2022-08-31T05:56:19.254Z,96278.47
2022-08-31T05:58:46.981Z,96278.28
2022-08-31T06:01:18.221Z,96281.66
2022-08-31T06:03:44.911Z,96273.72
2022-08-31T06:06:12.510Z,96279.25
2022-08-31T06:08:40.163Z,96283.47
2022-08-31T06:11:08.211Z,96283.94
2022-08-31T06:13:35.083Z,96285.56
2022-08-31T06:16:02.286Z,96293.19
2022-08-31T06:18:28.688Z,96290.78
2022-08-31T06:21:04.374Z,96290.34
2022-08-31T06:23:30.745Z,96300.03
2022-08-31T06:26:08.339Z,96292.94
2022-08-31T06:28:34.847Z,96298.56
2022-08-31T06:31:02.433Z,96295.97
2022-08-31T06:33:29.851Z,96300.38
2022-08-31T06:35:57.670Z,96301.50
2022-08-31T06:38:24.839Z,96305.41
2022-08-31T06:40:51.641Z,96306.50
2022-08-31T06:43:18.226Z,96313.22
2022-08-31T06:45:45.925Z,96316.47
2022-08-31T06:48:12.284Z,96313.38
2022-08-31T06:50:41.232Z,96315.28
2022-08-31T06:53:08.089Z,96316.41
2022-08-31T06:55:34.935Z,96324.63
2022-08-31T06:58:02.144Z,96319.75
2022-08-31T07:00:29.038Z,96327.34
2022-08-31T07:02:57.788Z,96328.00
2022-08-31T07:05:24.910Z,96319.03
2022-08-31T07:07:52.055Z,96316.03
2022-08-31T07:10:19.361Z,96317.00
2022-08-31T07:12:45.735Z,96314.31
2022-08-31T07:15:12.126Z,96332.78
2022-08-31T07:17:38.499Z,96315.59
2022-08-31T07:20:05.841Z,96324.06
2022-08-31T07:22:32.292Z,96321.00
2022-08-31T07:24:58.653Z,96324.31
2022-08-31T07:27:25.438Z,96325.91
2022-08-31T07:29:51.792Z,96319.84
2022-08-31T07:32:18.263Z,96323.88
2022-08-31T07:34:45.355Z,96327.84
2022-08-31T07:37:30.360Z,96320.38
2022-08-31T07:40:32.418Z,96326.28
2022-08-31T07:43:02.010Z,96319.06
2022-08-31T07:45:30.685Z,96330.97
2022-08-31T07:48:00.855Z,96329.31
2022-08-31T07:50:27.908Z,96342.19
2022-08-31T07:52:55.557Z,96342.50
2022-08-31T07:55:24.190Z,96340.09
2022-08-31T07:57:53.306Z,96344.41
2022-08-31T08:00:26.824Z,96345.00
2022-08-31T08:02:54.118Z,96341.00
2022-08-31T08:05:28.890Z,96351.00
2022-08-31T08:08:03.633Z,96350.94
2022-08-31T08:10:30.458Z,96352.78
2022-08-31T08:13:04.850Z,96369.81
2022-08-31T08:15:35.541Z,96361.66
2022-08-31T08:18:04.165Z,96366.34
2022-08-31T08:20:34.658Z,96363.78
2022-08-31T08:23:14.933Z,96357.25
2022-08-31T08:25:46.052Z,96359.63
2022-08-31T08:28:38.570Z,96362.78
2022-08-31T08:31:11.061Z,96367.66
2022-08-31T08:33:37.520Z,96382.41
2022-08-31T08:36:07.625Z,96379.88
2022-08-31T08:38:39.552Z,96382.38
2022-08-31T08:41:12.618Z,96370.56
2022-08-31T08:43:43.738Z,96378.47
2022-08-31T08:46:33.354Z,96379.78
2022-08-31T08:49:09.540Z,96388.81
2022-08-31T08:51:39.077Z,96390.91
2022-08-31T08:54:11.725Z,96394.84
2022-08-31T08:56:42.408Z,96396.63
2022-08-31T08:59:15.855Z,96397.69
2022-08-31T09:01:48.245Z,96398.25
2022-08-31T09:04:48.966Z,96406.41
2022-08-31T09:07:37.015Z,96406.97
2022-08-31T09:10:22.579Z,96413.31
2022-08-31T09:13:00.332Z,96416.69
2022-08-31T09:15:47.189Z,96411.69
2022-08-31T09:18:37.393Z,96410.66
2022-08-31T09:21:30.869Z,96404.22
2022-08-31T09:24:04.387Z,96407.59
2022-08-31T09:26:36.004Z,96406.72
2022-08-31T09:29:08.493Z,96405.00
2022-08-31T09:31:42.768Z,96410.75
2022-08-31T09:34:16.243Z,96410.25
2022-08-31T09:36:43.093Z,96410.28
2022-08-31T09:39:22.290Z,96410.59
2022-08-31T09:41:50.168Z,96413.19
2022-08-31T09:44:22.342Z,96407.94
2022-08-31T09:46:53.824Z,96406.75
2022-08-31T09:49:27.033Z,96403.38
2022-08-31T09:52:19.747Z,96407.34
2022-08-31T09:55:17.486Z,96401.22
2022-08-31T09:57:55.669Z,96402.63
2022-08-31T10:00:32.343Z,96403.16
2022-08-31T10:03:13.745Z,96406.41
2022-08-31T10:05:42.474Z,96402.53
2022-08-31T10:08:28.364Z,96401.94
2022-08-31T10:10:58.576Z,96396.34
2022-08-31T10:13:38.004Z,96405.19
2022-08-31T10:16:16.937Z,96402.84
2022-08-31T10:18:58.082Z,96401.50
2022-08-31T10:21:39.326Z,96402.94
2022-08-31T10:24:21.029Z,96400.63
2022-08-31T10:27:01.896Z,96403.53
2022-08-31T10:29:42.140Z,96400.41
2022-08-31T10:32:23.673Z,96403.16
2022-08-31T10:35:07.933Z,96407.25
2022-08-31T10:37:49.518Z,96399.38
2022-08-31T10:40:32.456Z,96405.50
2022-08-31T10:43:18.563Z,96402.69
2022-08-31T10:45:49.943Z,96402.56
2022-08-31T10:48:19.228Z,96395.00
2022-08-31T10:50:52.346Z,96396.34
2022-08-31T10:53:23.188Z,96391.00
2022-08-31T10:55:59.887Z,96402.53
2022-08-31T10:58:59.259Z,96397.47
2022-08-31T11:01:51.870Z,96402.06
2022-08-31T11:04:34.836Z,96395.66
2022-08-31T11:07:25.040Z,96403.16
2022-08-31T11:10:13.412Z,96400.63
2022-08-31T11:12:45.368Z,96399.75
2022-08-31T11:15:30.832Z,96400.63
2022-08-31T11:18:25.901Z,96401.66
2022-08-31T11:21:15.735Z,96401.69
2022-08-31T11:24:06.127Z,96410.31
2022-08-31T11:26:39.654Z,96411.84
2022-08-31T11:29:37.618Z,96413.69
2022-08-31T11:32:46.493Z,96411.19
2022-08-31T11:35:15.403Z,96409.63
2022-08-31T11:37:51.343Z,96405.44
2022-08-31T11:40:43.550Z,96406.69
2022-08-31T11:43:35.904Z,96403.84
2022-08-31T11:46:27.676Z,96400.22
2022-08-31T11:48:55.375Z,96395.94
2022-08-31T11:51:43.211Z,96396.91
2022-08-31T11:54:23.148Z,96389.66
2022-08-31T11:56:49.579Z,96391.44
2022-08-31T11:59:30.772Z,96394.56
2022-08-31T12:02:20.593Z,96392.94
2022-08-31T12:04:53.256Z,96388.09
2022-08-31T12:07:38.731Z,96384.25
2022-08-31T12:10:27.701Z,96382.03
2022-08-31T12:13:25.684Z,96391.00
2022-08-31T12:16:05.319Z,96384.53
2022-08-31T12:19:09.176Z,96388.59
2022-08-31T12:22:05.341Z,96381.91
2022-08-31T12:24:37.000Z,96377.06
2022-08-31T12:27:15.923Z,96385.66
2022-08-31T12:29:42.817Z,96384.94
2022-08-31T12:32:26.002Z,96383.03
2022-08-31T12:35:14.128Z,96380.78
2022-08-31T12:37:41.612Z,96393.41
2022-08-31T12:40:14.128Z,96386.41
2022-08-31T12:42:46.506Z,96373.78
2022-08-31T12:45:15.663Z,96375.06
2022-08-31T12:47:54.800Z,96385.63
2022-08-31T12:50:46.664Z,96388.09
2022-08-31T12:53:51.125Z,96376.38
2022-08-31T12:56:17.540Z,96381.00
2022-08-31T12:59:18.721Z,96375.63
2022-08-31T13:01:47.401Z,96373.03
2022-08-31T13:04:17.002Z,96374.75
2022-08-31T13:06:48.470Z,96369.63
2022-08-31T13:09:32.445Z,96371.28
2022-08-31T13:12:01.497Z,96365.72
2022-08-31T13:14:40.587Z,96360.69
2022-08-31T13:17:18.275Z,96357.56
2022-08-31T13:19:56.120Z,96354.00
2022-08-31T13:22:33.143Z,96348.34
2022-08-31T13:25:36.084Z,96345.25
2022-08-31T13:28:27.138Z,96334.97
2022-08-31T13:31:03.694Z,96345.53
2022-08-31T13:33:42.880Z,96340.22
2022-08-31T13:36:30.184Z,96335.97
2022-08-31T13:38:57.032Z,96337.22
2022-08-31T13:41:29.923Z,96335.94
2022-08-31T13:44:02.542Z,96340.63
2022-08-31T13:46:42.898Z,96338.75
2022-08-31T13:49:32.643Z,96334.56
2022-08-31T13:51:59.775Z,96327.78
2022-08-31T13:54:31.710Z,96339.44
2022-08-31T13:57:34.765Z,96334.97
2022-08-31T14:00:41.563Z,96341.72
2022-08-31T14:03:31.986Z,96333.47
2022-08-31T14:06:24.229Z,96329.13
2022-08-31T14:08:53.868Z,96336.41
2022-08-31T14:11:28.711Z,96337.38
2022-08-31T14:14:05.422Z,96328.84
2022-08-31T14:16:37.447Z,96328.91
2022-08-31T14:19:05.067Z,96329.09
2022-08-31T14:21:35.007Z,96332.72
2022-08-31T14:24:03.247Z,96339.00
2022-08-31T14:26:42.331Z,96342.53
2022-08-31T14:29:14.540Z,96327.91
2022-08-31T14:31:44.057Z,96335.84
2022-08-31T14:34:30.045Z,96325.41
2022-08-31T14:37:08.645Z,96320.75
2022-08-31T14:39:46.117Z,96327.66
2022-08-31T14:42:19.519Z,96330.09
2022-08-31T14:44:56.620Z,96329.38
2022-08-31T14:47:25.435Z,96321.59
2022-08-31T14:49:52.020Z,96316.47
2022-08-31T14:52:18.492Z,96324.03
2022-08-31T14:54:46.405Z,96315.72
2022-08-31T14:57:18.034Z,96315.34
2022-08-31T14:59:47.015Z,96312.44
2022-08-31T15:02:20.996Z,96314.88
2022-08-31T15:04:48.756Z,96316.50
2022-08-31T15:07:16.505Z,96313.72
2022-08-31T15:09:43.626Z,96323.91
2022-08-31T15:12:14.830Z,96322.06
2022-08-31T15:14:44.693Z,96315.59
2022-08-31T15:17:18.842Z,96327.16
2022-08-31T15:19:48.223Z,96320.84
2022-08-31T15:22:15.951Z,96319.47
2022-08-31T15:24:45.149Z,96326.66
2022-08-31T15:27:15.771Z,96316.72
2022-08-31T15:29:43.738Z,96318.44
2022-08-31T15:32:10.366Z,96317.09
2022-08-31T15:34:38.364Z,96312.81
2022-08-31T15:37:07.339Z,96313.63
2022-08-31T15:39:43.296Z,96302.81
2022-08-31T15:42:11.744Z,96310.69
2022-08-31T15:44:40.336Z,96304.47
2022-08-31T15:47:28.629Z,96296.34
2022-08-31T15:49:57.511Z,96306.75
2022-08-31T15:52:27.643Z,96299.13
2022-08-31T15:54:55.374Z,96299.13
2022-08-31T15:57:23.726Z,96297.88
2022-08-31T15:59:50.205Z,96301.53
2022-08-31T16:02:20.791Z,96308.97
2022-08-31T16:04:48.499Z,96307.13
2022-08-31T16:07:15.062Z,96316.47
2022-08-31T16:09:44.926Z,96304.28
2022-08-31T16:12:15.702Z,96304.09
2022-08-31T16:14:44.931Z,96305.44
2022-08-31T16:17:19.798Z,96310.59
2022-08-31T16:19:49.517Z,96312.97
2022-08-31T16:22:17.833Z,96309.09
2022-08-31T16:24:45.801Z,96318.56
2022-08-31T16:27:16.372Z,96317.38
2022-08-31T16:29:43.813Z,96311.75
2022-08-31T16:32:10.329Z,96310.09
2022-08-31T16:34:39.285Z,96306.03
2022-08-31T16:37:07.599Z,96318.22
2022-08-31T16:39:36.750Z,96319.81
2022-08-31T16:42:04.665Z,96313.78
2022-08-31T16:44:36.627Z,96313.00
2022-08-31T16:47:05.006Z,96317.28
2022-08-31T16:49:34.091Z,96310.47
2022-08-31T16:52:03.248Z,96308.91
2022-08-31T16:54:30.558Z,96318.63
2022-08-31T16:56:57.667Z,96310.47
2022-08-31T16:59:27.085Z,96315.63
2022-08-31T17:01:54.727Z,96315.91
2022-08-31T17:04:48.038Z,96330.13
2022-08-31T17:07:13.167Z,96316.72
2022-08-31T17:09:40.218Z,96314.13
2022-08-31T17:12:11.992Z,96326.78
2022-08-31T17:14:47.404Z,96321.13
2022-08-31T17:17:16.694Z,96321.97
2022-08-31T17:19:44.338Z,96324.97
2022-08-31T17:22:18.156Z,96327.09
2022-08-31T17:24:48.538Z,96340.41
2022-08-31T17:27:18.819Z,96339.41
2022-08-31T17:29:55.895Z,96337.63
2022-08-31T17:32:26.053Z,96348.19
2022-08-31T17:34:54.283Z,96354.13
2022-08-31T17:37:32.970Z,96348.50
2022-08-31T17:40:00.541Z,96355.13
2022-08-31T17:42:27.872Z,96358.91
2022-08-31T17:44:56.247Z,96366.53
2022-08-31T17:47:25.359Z,96360.03
2022-08-31T17:49:52.505Z,96366.13
2022-08-31T17:52:21.400Z,96356.38
2022-08-31T17:54:48.628Z,96360.03
2022-08-31T17:57:16.787Z,96361.09
2022-08-31T17:59:49.720Z,96353.69
2022-08-31T18:02:22.168Z,96361.22
2022-08-31T18:04:48.978Z,96362.41
2022-08-31T18:07:16.238Z,96362.19
2022-08-31T18:09:45.243Z,96362.69
2022-08-31T18:12:11.790Z,96370.66
2022-08-31T18:14:39.856Z,96359.25
2022-08-31T18:17:10.088Z,96361.09
2022-08-31T18:19:37.739Z,96366.28
2022-08-31T18:22:05.610Z,96378.78
2022-08-31T18:24:36.846Z,96379.41
2022-08-31T18:27:07.426Z,96383.03
2022-08-31T18:29:36.024Z,96389.72
2022-08-31T18:32:04.991Z,96394.41
2022-08-31T18:34:33.632Z,96390.78
2022-08-31T18:37:00.687Z,96393.78
2022-08-31T18:39:50.957Z,96399.91
2022-08-31T18:42:37.032Z,96406.66
2022-08-31T18:45:16.560Z,96414.13
2022-08-31T18:47:49.594Z,96402.03
2022-08-31T18:50:32.290Z,96402.59
2022-08-31T18:53:10.821Z,96400.34
2022-08-31T18:55:41.418Z,96399.72
2022-08-31T18:58:08.246Z,96396.13
2022-08-31T19:00:34.841Z,96406.06
2022-08-31T19:03:02.399Z,96399.00
2022-08-31T19:05:30.005Z,96401.75
2022-08-31T19:07:58.765Z,96412.88
2022-08-31T19:10:25.339Z,96418.25
2022-08-31T19:12:52.253Z,96418.88
2022-08-31T19:15:18.691Z,96419.06
2022-08-31T19:17:49.517Z,96414.84
2022-08-31T19:20:16.830Z,96401.63
2022-08-31T19:22:43.368Z,96407.72
2022-08-31T19:25:18.261Z,96416.41
2022-08-31T19:27:51.349Z,96416.91
2022-08-31T19:30:24.615Z,96414.69
2022-08-31T19:32:54.582Z,96418.38
2022-08-31T19:35:21.212Z,96410.75
2022-08-31T19:37:51.890Z,96410.00
2022-08-31T19:40:19.105Z,96419.59
2022-08-31T19:45:45.041Z,96420.84
2022-08-31T19:48:12.252Z,96411.91
2022-08-31T19:50:41.799Z,96418.16
2022-08-31T19:53:12.418Z,96415.41
2022-08-31T19:55:51.413Z,96416.81
2022-08-31T19:58:22.401Z,96419.00
2022-08-31T20:00:50.131Z,96410.69
2022-08-31T20:03:19.144Z,96410.72
2022-08-31T20:05:46.335Z,96412.97
2022-08-31T20:08:13.143Z,96422.66
2022-08-31T20:10:42.120Z,96422.78
2022-08-31T20:13:09.859Z,96418.38
2022-08-31T20:15:42.241Z,96422.78
2022-08-31T20:18:11.179Z,96425.38
2022-08-31T20:20:40.793Z,96410.59
2022-08-31T20:23:07.642Z,96417.69
2022-08-31T20:25:38.008Z,96409.38
2022-08-31T20:28:07.617Z,96409.75
2022-08-31T20:30:42.125Z,96398.03
2022-08-31T20:33:16.575Z,96410.91
2022-08-31T20:35:47.178Z,96411.13
2022-08-31T20:38:15.219Z,96412.97
2022-08-31T20:40:44.129Z,96410.78
2022-08-31T20:43:12.555Z,96410.66
2022-08-31T20:45:42.602Z,96411.34
2022-08-31T20:48:29.190Z,96413.09
2022-08-31T20:50:56.647Z,96413.47
2022-08-31T20:53:42.815Z,96416.22
2022-08-31T20:56:16.919Z,96414.78
2022-08-31T20:58:48.278Z,96412.81
2022-08-31T21:01:16.454Z,96408.84
2022-08-31T21:03:43.238Z,96412.19
2022-08-31T21:06:14.452Z,96405.22
2022-08-31T21:08:42.957Z,96413.56
2022-08-31T21:11:18.380Z,96409.69
2022-08-31T21:13:47.047Z,96420.25
2022-08-31T21:16:14.422Z,96428.84
2022-08-31T21:18:41.002Z,96419.53
2022-08-31T21:21:17.781Z,96419.53
2022-08-31T21:23:46.243Z,96415.50
2022-08-31T21:26:22.905Z,96412.69
2022-08-31T21:28:49.891Z,96415.13
2022-08-31T21:31:28.674Z,96415.13
2022-08-31T21:33:59.802Z,96413.59
2022-08-31T21:36:27.517Z,96409.06
2022-08-31T21:38:56.652Z,96412.41
2022-08-31T21:41:26.508Z,96408.72
2022-08-31T21:43:53.874Z,96416.72
2022-08-31T21:46:23.271Z,96409.44
2022-08-31T21:48:51.990Z,96408.47
2022-08-31T21:51:25.799Z,96413.22
2022-08-31T21:53:58.848Z,96408.13
2022-08-31T21:56:28.520Z,96404.25
2022-08-31T21:58:57.430Z,96405.00
2022-08-31T22:01:26.645Z,96405.31
2022-08-31T22:03:58.687Z,96412.00
2022-08-31T22:06:30.953Z,96421.47
2022-08-31T22:09:01.955Z,96421.09
2022-08-31T22:11:30.816Z,96416.41
2022-08-31T22:13:58.935Z,96412.56
2022-08-31T22:16:26.812Z,96423.06
2022-08-31T22:19:01.277Z,96424.41
2022-08-31T22:21:31.899Z,96427.06
2022-08-31T22:24:02.543Z,96437.88
2022-08-31T22:26:30.465Z,96432.13
2022-08-31T22:28:56.969Z,96432.78
2022-08-31T22:31:25.557Z,96436.72
2022-08-31T22:33:52.050Z,96434.03
2022-08-31T22:36:31.868Z,96433.56
2022-08-31T22:39:03.481Z,96437.22
2022-08-31T22:41:37.219Z,96439.22
2022-08-31T22:44:09.218Z,96431.97
2022-08-31T22:46:37.011Z,96433.59
2022-08-31T22:49:03.894Z,96432.13
2022-08-31T22:51:30.740Z,96439.16
2022-08-31T22:53:57.123Z,96440.13
2022-08-31T22:56:26.906Z,96438.03
2022-08-31T22:58:56.412Z,96427.72
2022-08-31T23:01:27.693Z,96432.16
2022-08-31T23:03:57.378Z,96429.06
2022-08-31T23:06:26.563Z,96427.00
2022-08-31T23:08:56.801Z,96424.25
2022-08-31T23:11:25.063Z,96426.81
2022-08-31T23:13:55.577Z,96427.41
2022-08-31T23:16:29.331Z,96419.81
2022-08-31T23:19:03.515Z,96425.22
2022-08-31T23:21:32.575Z,96423.31
2022-08-31T23:24:00.752Z,96419.53
2022-08-31T23:26:29.368Z,96419.78
2022-08-31T23:28:58.911Z,96412.91
2022-08-31T23:31:27.860Z,96421.13
2022-08-31T23:33:55.139Z,96419.97
2022-08-31T23:36:26.037Z,96416.53
2022-08-31T23:38:55.379Z,96413.03
2022-08-31T23:41:25.867Z,96412.09
2022-08-31T23:43:53.515Z,96408.72
2022-08-31T23:46:20.907Z,96400.56
2022-08-31T23:48:47.507Z,96396.91
2022-08-31T23:51:15.741Z,96390.88
2022-08-31T23:53:55.727Z,96405.16
2022-08-31T23:56:35.902Z,96400.78
2022-08-31T23:59:09.346Z,96404.44
